sensor_id;sensor_type;location;lat;lon;timestamp;temperature;humidity
12434;DHT22;6281;49.038;8.372;2022-09-09T00:01:39;16.40;99.90
12434;DHT22;6281;49.038;8.372;2022-09-09T00:04:13;16.60;99.90
12434;DHT22;6281;49.038;8.372;2022-09-09T00:06:44;16.60;99.90
12434;DHT22;6281;49.038;8.372;2022-09-09T00:09:14;16.60;99.90
12434;DHT22;6281;49.038;8.372;2022-09-09T00:11:43;16.50;99.90
12434;DHT22;6281;49.038;8.372;2022-09-09T00:14:18;16.50;99.90
12434;DHT22;6281;49.038;8.372;2022-09-09T00:16:52;16.60;99.90
12434;DHT22;6281;49.038;8.372;2022-09-09T00:19:26;16.60;99.90
12434;DHT22;6281;49.038;8.372;2022-09-09T00:22:04;16.50;99.90
12434;DHT22;6281;49.038;8.372;2022-09-09T00:24:40;16.40;99.90
12434;DHT22;6281;49.038;8.372;2022-09-09T00:27:15;16.50;99.90
12434;DHT22;6281;49.038;8.372;2022-09-09T00:29:47;16.50;99.90
12434;DHT22;6281;49.038;8.372;2022-09-09T00:32:20;16.60;99.90
12434;DHT22;6281;49.038;8.372;2022-09-09T00:34:49;16.80;99.90
12434;DHT22;6281;49.038;8.372;2022-09-09T00:37:19;16.70;99.90
12434;DHT22;6281;49.038;8.372;2022-09-09T00:39:48;16.70;99.90
12434;DHT22;6281;49.038;8.372;2022-09-09T00:42:19;16.60;99.90
12434;DHT22;6281;49.038;8.372;2022-09-09T00:44:58;16.60;99.90
12434;DHT22;6281;49.038;8.372;2022-09-09T00:47:40;16.70;99.90
12434;DHT22;6281;49.038;8.372;2022-09-09T00:50:29;16.50;99.90
12434;DHT22;6281;49.038;8.372;2022-09-09T00:53:05;16.60;99.90
12434;DHT22;6281;49.038;8.372;2022-09-09T00:55:41;16.60;99.90
12434;DHT22;6281;49.038;8.372;2022-09-09T00:58:12;16.70;99.90
12434;DHT22;6281;49.038;8.372;2022-09-09T01:00:43;16.70;99.90
12434;DHT22;6281;49.038;8.372;2022-09-09T01:03:19;16.70;99.90
12434;DHT22;6281;49.038;8.372;2022-09-09T01:05:59;16.70;99.90
12434;DHT22;6281;49.038;8.372;2022-09-09T01:08:47;16.70;99.90
12434;DHT22;6281;49.038;8.372;2022-09-09T01:11:21;16.70;99.90
12434;DHT22;6281;49.038;8.372;2022-09-09T01:13:53;16.70;99.90
12434;DHT22;6281;49.038;8.372;2022-09-09T01:16:26;16.80;99.90
12434;DHT22;6281;49.038;8.372;2022-09-09T01:18:54;16.70;99.90
12434;DHT22;6281;49.038;8.372;2022-09-09T01:21:37;16.70;99.90
12434;DHT22;6281;49.038;8.372;2022-09-09T01:24:20;16.70;99.90
12434;DHT22;6281;49.038;8.372;2022-09-09T01:26:51;16.80;99.90
12434;DHT22;6281;49.038;8.372;2022-09-09T01:29:21;16.80;99.90
12434;DHT22;6281;49.038;8.372;2022-09-09T01:31:53;16.90;99.90
12434;DHT22;6281;49.038;8.372;2022-09-09T01:34:23;16.80;99.90
12434;DHT22;6281;49.038;8.372;2022-09-09T01:36:59;16.80;99.90
12434;DHT22;6281;49.038;8.372;2022-09-09T01:39:27;16.70;99.90
12434;DHT22;6281;49.038;8.372;2022-09-09T01:41:56;16.70;99.90
12434;DHT22;6281;49.038;8.372;2022-09-09T01:44:24;16.60;99.90
12434;DHT22;6281;49.038;8.372;2022-09-09T01:46:52;16.50;99.90
12434;DHT22;6281;49.038;8.372;2022-09-09T01:49:19;16.00;99.90
12434;DHT22;6281;49.038;8.372;2022-09-09T01:51:49;15.90;99.90
12434;DHT22;6281;49.038;8.372;2022-09-09T01:54:17;15.80;99.90
12434;DHT22;6281;49.038;8.372;2022-09-09T01:56:57;15.70;99.90
12434;DHT22;6281;49.038;8.372;2022-09-09T01:59:42;15.60;99.90
12434;DHT22;6281;49.038;8.372;2022-09-09T02:02:15;15.50;99.90
12434;DHT22;6281;49.038;8.372;2022-09-09T02:04:45;15.30;99.90
12434;DHT22;6281;49.038;8.372;2022-09-09T02:07:22;15.50;99.90
12434;DHT22;6281;49.038;8.372;2022-09-09T02:09:57;15.70;99.90
12434;DHT22;6281;49.038;8.372;2022-09-09T02:12:28;15.70;99.90
12434;DHT22;6281;49.038;8.372;2022-09-09T02:15:02;15.70;99.90
12434;DHT22;6281;49.038;8.372;2022-09-09T02:17:33;15.70;99.90
12434;DHT22;6281;49.038;8.372;2022-09-09T02:20:04;15.60;99.90
12434;DHT22;6281;49.038;8.372;2022-09-09T02:22:32;15.60;99.90
12434;DHT22;6281;49.038;8.372;2022-09-09T02:25:00;15.60;99.90
12434;DHT22;6281;49.038;8.372;2022-09-09T02:27:29;15.60;99.90
12434;DHT22;6281;49.038;8.372;2022-09-09T02:29:57;15.50;99.90
12434;DHT22;6281;49.038;8.372;2022-09-09T02:32:25;15.50;99.90
12434;DHT22;6281;49.038;8.372;2022-09-09T02:34:59;15.50;99.90
12434;DHT22;6281;49.038;8.372;2022-09-09T02:37:31;15.50;99.90
12434;DHT22;6281;49.038;8.372;2022-09-09T02:39:58;15.60;99.90
12434;DHT22;6281;49.038;8.372;2022-09-09T02:42:25;15.50;99.90
12434;DHT22;6281;49.038;8.372;2022-09-09T02:44:54;15.40;99.90
12434;DHT22;6281;49.038;8.372;2022-09-09T02:47:26;15.10;99.90
12434;DHT22;6281;49.038;8.372;2022-09-09T02:50:05;15.20;99.90
12434;DHT22;6281;49.038;8.372;2022-09-09T02:52:42;15.10;99.90
12434;DHT22;6281;49.038;8.372;2022-09-09T02:55:14;15.20;99.90
12434;DHT22;6281;49.038;8.372;2022-09-09T02:57:43;15.30;99.90
12434;DHT22;6281;49.038;8.372;2022-09-09T03:00:14;15.30;99.90
12434;DHT22;6281;49.038;8.372;2022-09-09T03:02:41;15.30;99.90
12434;DHT22;6281;49.038;8.372;2022-09-09T03:05:08;15.30;99.90
12434;DHT22;6281;49.038;8.372;2022-09-09T03:07:35;15.50;99.90
12434;DHT22;6281;49.038;8.372;2022-09-09T03:10:02;15.20;99.90
12434;DHT22;6281;49.038;8.372;2022-09-09T03:12:29;15.50;99.90
12434;DHT22;6281;49.038;8.372;2022-09-09T03:14:56;15.50;99.90
12434;DHT22;6281;49.038;8.372;2022-09-09T03:17:25;15.50;99.90
12434;DHT22;6281;49.038;8.372;2022-09-09T03:19:53;15.40;99.90
12434;DHT22;6281;49.038;8.372;2022-09-09T03:22:20;15.20;99.90
12434;DHT22;6281;49.038;8.372;2022-09-09T03:24:47;15.20;99.90
12434;DHT22;6281;49.038;8.372;2022-09-09T03:27:14;15.30;99.90
12434;DHT22;6281;49.038;8.372;2022-09-09T03:29:41;15.40;99.90
12434;DHT22;6281;49.038;8.372;2022-09-09T03:32:08;15.40;99.90
12434;DHT22;6281;49.038;8.372;2022-09-09T03:34:37;15.30;99.90
12434;DHT22;6281;49.038;8.372;2022-09-09T03:37:06;15.30;99.90
12434;DHT22;6281;49.038;8.372;2022-09-09T03:39:33;15.20;99.90
12434;DHT22;6281;49.038;8.372;2022-09-09T03:41:59;15.10;99.90
12434;DHT22;6281;49.038;8.372;2022-09-09T03:44:29;15.00;99.90
12434;DHT22;6281;49.038;8.372;2022-09-09T03:46:56;15.30;99.90
12434;DHT22;6281;49.038;8.372;2022-09-09T03:49:26;15.40;99.90
12434;DHT22;6281;49.038;8.372;2022-09-09T03:51:55;15.30;99.90
12434;DHT22;6281;49.038;8.372;2022-09-09T03:54:23;15.20;99.90
12434;DHT22;6281;49.038;8.372;2022-09-09T03:56:50;15.10;99.90
12434;DHT22;6281;49.038;8.372;2022-09-09T03:59:17;15.00;99.90
12434;DHT22;6281;49.038;8.372;2022-09-09T04:01:46;15.00;99.90
12434;DHT22;6281;49.038;8.372;2022-09-09T04:04:13;15.00;99.90
12434;DHT22;6281;49.038;8.372;2022-09-09T04:06:39;15.00;99.90
12434;DHT22;6281;49.038;8.372;2022-09-09T04:09:08;15.20;99.90
12434;DHT22;6281;49.038;8.372;2022-09-09T04:11:35;15.30;99.90
12434;DHT22;6281;49.038;8.372;2022-09-09T04:14:02;15.30;99.90
12434;DHT22;6281;49.038;8.372;2022-09-09T04:16:31;15.30;99.90
12434;DHT22;6281;49.038;8.372;2022-09-09T04:18:58;15.30;99.90
12434;DHT22;6281;49.038;8.372;2022-09-09T04:21:26;15.40;99.90
12434;DHT22;6281;49.038;8.372;2022-09-09T04:23:53;15.40;99.90
12434;DHT22;6281;49.038;8.372;2022-09-09T04:26:22;15.40;99.90
12434;DHT22;6281;49.038;8.372;2022-09-09T04:28:49;15.50;99.90
12434;DHT22;6281;49.038;8.372;2022-09-09T04:31:18;15.50;99.90
12434;DHT22;6281;49.038;8.372;2022-09-09T04:33:45;15.50;99.90
12434;DHT22;6281;49.038;8.372;2022-09-09T04:36:13;15.50;99.90
12434;DHT22;6281;49.038;8.372;2022-09-09T04:38:40;15.40;99.90
12434;DHT22;6281;49.038;8.372;2022-09-09T04:41:07;15.50;99.90
12434;DHT22;6281;49.038;8.372;2022-09-09T04:43:38;15.40;99.90
12434;DHT22;6281;49.038;8.372;2022-09-09T04:46:05;15.30;99.90
12434;DHT22;6281;49.038;8.372;2022-09-09T04:48:32;15.40;99.90
12434;DHT22;6281;49.038;8.372;2022-09-09T04:51:00;15.50;99.90
12434;DHT22;6281;49.038;8.372;2022-09-09T04:53:28;15.70;99.90
12434;DHT22;6281;49.038;8.372;2022-09-09T04:56:01;15.60;99.90
12434;DHT22;6281;49.038;8.372;2022-09-09T04:58:28;15.70;99.90
12434;DHT22;6281;49.038;8.372;2022-09-09T05:01:03;15.60;99.90
12434;DHT22;6281;49.038;8.372;2022-09-09T05:03:30;15.70;99.90
12434;DHT22;6281;49.038;8.372;2022-09-09T05:06:02;15.70;99.90
12434;DHT22;6281;49.038;8.372;2022-09-09T05:08:30;15.70;99.90
12434;DHT22;6281;49.038;8.372;2022-09-09T05:10:56;15.70;99.90
12434;DHT22;6281;49.038;8.372;2022-09-09T05:13:25;15.80;99.90
12434;DHT22;6281;49.038;8.372;2022-09-09T05:15:52;15.70;99.90
12434;DHT22;6281;49.038;8.372;2022-09-09T05:18:21;15.90;99.90
12434;DHT22;6281;49.038;8.372;2022-09-09T05:21:01;15.90;99.90
12434;DHT22;6281;49.038;8.372;2022-09-09T05:23:28;15.80;99.90
12434;DHT22;6281;49.038;8.372;2022-09-09T05:25:57;15.90;99.90
12434;DHT22;6281;49.038;8.372;2022-09-09T05:28:24;15.90;99.90
12434;DHT22;6281;49.038;8.372;2022-09-09T05:30:59;16.00;99.90
12434;DHT22;6281;49.038;8.372;2022-09-09T05:33:31;16.00;99.90
12434;DHT22;6281;49.038;8.372;2022-09-09T05:35:59;16.00;99.90
12434;DHT22;6281;49.038;8.372;2022-09-09T05:38:27;16.10;99.90
12434;DHT22;6281;49.038;8.372;2022-09-09T05:40:54;16.10;99.90
12434;DHT22;6281;49.038;8.372;2022-09-09T05:43:23;16.00;99.90
12434;DHT22;6281;49.038;8.372;2022-09-09T05:45:59;16.00;99.90
12434;DHT22;6281;49.038;8.372;2022-09-09T05:48:30;16.00;99.90
12434;DHT22;6281;49.038;8.372;2022-09-09T05:50:57;16.00;99.90
12434;DHT22;6281;49.038;8.372;2022-09-09T05:53:25;16.00;99.90
12434;DHT22;6281;49.038;8.372;2022-09-09T05:55:59;16.00;99.90
12434;DHT22;6281;49.038;8.372;2022-09-09T05:58:27;16.10;99.90
12434;DHT22;6281;49.038;8.372;2022-09-09T06:01:00;16.40;99.90
12434;DHT22;6281;49.038;8.372;2022-09-09T06:03:29;16.60;99.90
12434;DHT22;6281;49.038;8.372;2022-09-09T06:06:00;16.50;99.90
12434;DHT22;6281;49.038;8.372;2022-09-09T06:08:27;16.60;99.90
12434;DHT22;6281;49.038;8.372;2022-09-09T06:11:01;17.00;99.90
12434;DHT22;6281;49.038;8.372;2022-09-09T06:13:28;16.80;99.90
12434;DHT22;6281;49.038;8.372;2022-09-09T06:15:56;16.70;99.90
12434;DHT22;6281;49.038;8.372;2022-09-09T06:18:24;16.90;99.90
12434;DHT22;6281;49.038;8.372;2022-09-09T06:20:57;16.90;99.90
12434;DHT22;6281;49.038;8.372;2022-09-09T06:23:24;17.10;99.90
12434;DHT22;6281;49.038;8.372;2022-09-09T06:25:52;17.00;99.90
12434;DHT22;6281;49.038;8.372;2022-09-09T06:28:26;17.10;99.90
12434;DHT22;6281;49.038;8.372;2022-09-09T06:30:57;16.90;99.90
12434;DHT22;6281;49.038;8.372;2022-09-09T06:33:24;17.10;99.90
12434;DHT22;6281;49.038;8.372;2022-09-09T06:35:51;17.10;99.90
12434;DHT22;6281;49.038;8.372;2022-09-09T06:38:20;16.90;99.90
12434;DHT22;6281;49.038;8.372;2022-09-09T06:40:51;17.00;99.90
12434;DHT22;6281;49.038;8.372;2022-09-09T06:43:20;17.30;99.90
12434;DHT22;6281;49.038;8.372;2022-09-09T06:45:53;17.20;99.90
12434;DHT22;6281;49.038;8.372;2022-09-09T06:48:20;17.10;99.90
12434;DHT22;6281;49.038;8.372;2022-09-09T06:50:47;17.00;99.90
12434;DHT22;6281;49.038;8.372;2022-09-09T06:53:16;17.00;99.90
12434;DHT22;6281;49.038;8.372;2022-09-09T06:55:46;17.00;99.90
12434;DHT22;6281;49.038;8.372;2022-09-09T06:58:13;17.10;99.90
12434;DHT22;6281;49.038;8.372;2022-09-09T07:00:40;17.10;99.90
12434;DHT22;6281;49.038;8.372;2022-09-09T07:03:07;17.00;99.90
12434;DHT22;6281;49.038;8.372;2022-09-09T07:05:36;17.30;99.90
12434;DHT22;6281;49.038;8.372;2022-09-09T07:08:03;17.30;99.90
12434;DHT22;6281;49.038;8.372;2022-09-09T07:10:31;17.60;99.90
12434;DHT22;6281;49.038;8.372;2022-09-09T07:13:01;17.40;99.90
12434;DHT22;6281;49.038;8.372;2022-09-09T07:15:28;17.70;99.90
12434;DHT22;6281;49.038;8.372;2022-09-09T07:17:55;17.40;99.90
12434;DHT22;6281;49.038;8.372;2022-09-09T07:20:27;17.40;99.90
12434;DHT22;6281;49.038;8.372;2022-09-09T07:22:55;17.40;99.90
12434;DHT22;6281;49.038;8.372;2022-09-09T07:25:22;17.30;99.90
12434;DHT22;6281;49.038;8.372;2022-09-09T07:27:49;17.30;99.90
12434;DHT22;6281;49.038;8.372;2022-09-09T07:30:17;17.20;99.90
12434;DHT22;6281;49.038;8.372;2022-09-09T07:32:45;17.10;99.90
12434;DHT22;6281;49.038;8.372;2022-09-09T07:35:11;17.10;99.90
12434;DHT22;6281;49.038;8.372;2022-09-09T07:37:39;17.00;99.90
12434;DHT22;6281;49.038;8.372;2022-09-09T07:40:07;16.90;99.90
12434;DHT22;6281;49.038;8.372;2022-09-09T07:42:34;17.40;99.90
12434;DHT22;6281;49.038;8.372;2022-09-09T07:45:01;17.30;99.90
12434;DHT22;6281;49.038;8.372;2022-09-09T07:47:30;17.20;99.90
12434;DHT22;6281;49.038;8.372;2022-09-09T07:49:56;17.30;99.90
12434;DHT22;6281;49.038;8.372;2022-09-09T07:52:24;17.40;99.90
12434;DHT22;6281;49.038;8.372;2022-09-09T07:54:51;17.50;99.90
12434;DHT22;6281;49.038;8.372;2022-09-09T07:57:18;17.50;99.90
12434;DHT22;6281;49.038;8.372;2022-09-09T07:59:45;17.70;99.90
12434;DHT22;6281;49.038;8.372;2022-09-09T08:02:12;18.00;99.90
12434;DHT22;6281;49.038;8.372;2022-09-09T08:04:40;18.40;99.90
12434;DHT22;6281;49.038;8.372;2022-09-09T08:07:07;18.40;99.90
12434;DHT22;6281;49.038;8.372;2022-09-09T08:09:34;18.30;99.90
12434;DHT22;6281;49.038;8.372;2022-09-09T08:12:01;18.30;99.90
12434;DHT22;6281;49.038;8.372;2022-09-09T08:14:28;18.20;99.90
12434;DHT22;6281;49.038;8.372;2022-09-09T08:16:55;18.20;99.90
12434;DHT22;6281;49.038;8.372;2022-09-09T08:19:22;18.20;99.90
12434;DHT22;6281;49.038;8.372;2022-09-09T08:21:50;18.10;99.90
12434;DHT22;6281;49.038;8.372;2022-09-09T08:24:17;18.10;99.90
12434;DHT22;6281;49.038;8.372;2022-09-09T08:26:46;18.20;99.90
12434;DHT22;6281;49.038;8.372;2022-09-09T08:29:14;18.10;99.90
12434;DHT22;6281;49.038;8.372;2022-09-09T08:31:43;18.10;99.90
12434;DHT22;6281;49.038;8.372;2022-09-09T08:34:11;18.00;99.90
12434;DHT22;6281;49.038;8.372;2022-09-09T08:36:39;18.20;99.90
12434;DHT22;6281;49.038;8.372;2022-09-09T08:39:10;18.50;99.90
12434;DHT22;6281;49.038;8.372;2022-09-09T08:42:08;18.60;99.90
12434;DHT22;6281;49.038;8.372;2022-09-09T08:44:54;18.70;99.90
12434;DHT22;6281;49.038;8.372;2022-09-09T08:47:34;19.10;99.90
12434;DHT22;6281;49.038;8.372;2022-09-09T08:50:13;18.90;99.90
12434;DHT22;6281;49.038;8.372;2022-09-09T08:52:47;19.10;99.90
12434;DHT22;6281;49.038;8.372;2022-09-09T08:55:22;19.00;99.90
12434;DHT22;6281;49.038;8.372;2022-09-09T08:57:53;18.90;99.90
12434;DHT22;6281;49.038;8.372;2022-09-09T09:00:21;18.60;99.90
12434;DHT22;6281;49.038;8.372;2022-09-09T09:02:59;18.50;99.90
12434;DHT22;6281;49.038;8.372;2022-09-09T09:05:30;18.20;99.90
12434;DHT22;6281;49.038;8.372;2022-09-09T09:08:08;18.20;99.90
12434;DHT22;6281;49.038;8.372;2022-09-09T09:10:46;17.90;99.90
12434;DHT22;6281;49.038;8.372;2022-09-09T09:13:15;17.90;99.90
12434;DHT22;6281;49.038;8.372;2022-09-09T09:15:45;18.00;99.90
12434;DHT22;6281;49.038;8.372;2022-09-09T09:18:17;18.10;99.90
12434;DHT22;6281;49.038;8.372;2022-09-09T09:20:50;18.70;99.90
12434;DHT22;6281;49.038;8.372;2022-09-09T09:23:22;18.60;99.90
12434;DHT22;6281;49.038;8.372;2022-09-09T09:25:53;18.70;99.90
12434;DHT22;6281;49.038;8.372;2022-09-09T09:28:25;18.90;99.90
12434;DHT22;6281;49.038;8.372;2022-09-09T09:30:55;19.50;99.90
12434;DHT22;6281;49.038;8.372;2022-09-09T09:33:26;22.50;99.90
12434;DHT22;6281;49.038;8.372;2022-09-09T09:35:55;21.50;99.90
12434;DHT22;6281;49.038;8.372;2022-09-09T09:38:24;20.30;99.90
12434;DHT22;6281;49.038;8.372;2022-09-09T09:40:54;20.00;99.90
12434;DHT22;6281;49.038;8.372;2022-09-09T09:43:26;20.40;99.90
12434;DHT22;6281;49.038;8.372;2022-09-09T09:45:54;22.60;99.90
12434;DHT22;6281;49.038;8.372;2022-09-09T09:48:21;22.00;99.90
12434;DHT22;6281;49.038;8.372;2022-09-09T09:50:50;23.70;99.90
12434;DHT22;6281;49.038;8.372;2022-09-09T09:53:21;25.20;99.90
12434;DHT22;6281;49.038;8.372;2022-09-09T09:55:55;24.20;99.90
12434;DHT22;6281;49.038;8.372;2022-09-09T09:58:23;24.30;99.90
12434;DHT22;6281;49.038;8.372;2022-09-09T10:00:52;23.60;99.90
12434;DHT22;6281;49.038;8.372;2022-09-09T10:03:24;22.50;99.90
12434;DHT22;6281;49.038;8.372;2022-09-09T10:05:51;23.20;99.90
12434;DHT22;6281;49.038;8.372;2022-09-09T10:08:19;23.40;99.90
12434;DHT22;6281;49.038;8.372;2022-09-09T10:11:16;22.80;99.90
12434;DHT22;6281;49.038;8.372;2022-09-09T10:13:55;23.50;99.90
12434;DHT22;6281;49.038;8.372;2022-09-09T10:16:34;23.40;99.90
12434;DHT22;6281;49.038;8.372;2022-09-09T10:19:12;23.40;99.90
12434;DHT22;6281;49.038;8.372;2022-09-09T10:22:13;24.90;99.90
12434;DHT22;6281;49.038;8.372;2022-09-09T10:25:00;24.70;99.90
12434;DHT22;6281;49.038;8.372;2022-09-09T10:27:36;24.40;99.90
12434;DHT22;6281;49.038;8.372;2022-09-09T10:30:11;24.70;99.90
12434;DHT22;6281;49.038;8.372;2022-09-09T10:32:46;26.50;99.90
12434;DHT22;6281;49.038;8.372;2022-09-09T10:35:29;25.70;99.90
12434;DHT22;6281;49.038;8.372;2022-09-09T10:38:13;24.40;99.90
12434;DHT22;6281;49.038;8.372;2022-09-09T10:43:47;25.10;99.90
12434;DHT22;6281;49.038;8.372;2022-09-09T10:46:22;25.70;99.90
12434;DHT22;6281;49.038;8.372;2022-09-09T10:49:06;25.40;99.90
12434;DHT22;6281;49.038;8.372;2022-09-09T10:51:42;22.20;99.90
12434;DHT22;6281;49.038;8.372;2022-09-09T10:54:31;22.40;99.90
12434;DHT22;6281;49.038;8.372;2022-09-09T10:57:08;25.20;99.90
12434;DHT22;6281;49.038;8.372;2022-09-09T10:59:42;25.60;99.90
12434;DHT22;6281;49.038;8.372;2022-09-09T11:02:15;25.10;99.90
12434;DHT22;6281;49.038;8.372;2022-09-09T11:04:48;25.00;99.90
12434;DHT22;6281;49.038;8.372;2022-09-09T11:07:25;28.50;99.90
12434;DHT22;6281;49.038;8.372;2022-09-09T11:09:58;26.80;95.70
12434;DHT22;6281;49.038;8.372;2022-09-09T11:12:27;26.00;99.90
12434;DHT22;6281;49.038;8.372;2022-09-09T11:14:59;27.20;93.00
12434;DHT22;6281;49.038;8.372;2022-09-09T11:17:35;24.90;99.90
12434;DHT22;6281;49.038;8.372;2022-09-09T11:20:05;25.10;99.90
12434;DHT22;6281;49.038;8.372;2022-09-09T11:22:34;24.90;99.90
12434;DHT22;6281;49.038;8.372;2022-09-09T11:25:07;25.50;99.90
12434;DHT22;6281;49.038;8.372;2022-09-09T11:27:42;26.40;99.90
12434;DHT22;6281;49.038;8.372;2022-09-09T11:30:20;25.40;99.90
12434;DHT22;6281;49.038;8.372;2022-09-09T11:33:24;23.80;99.90
12434;DHT22;6281;49.038;8.372;2022-09-09T11:36:11;23.90;99.90
12434;DHT22;6281;49.038;8.372;2022-09-09T11:38:45;24.10;99.90
12434;DHT22;6281;49.038;8.372;2022-09-09T11:41:13;24.90;99.90
12434;DHT22;6281;49.038;8.372;2022-09-09T11:43:42;24.40;99.90
12434;DHT22;6281;49.038;8.372;2022-09-09T11:46:12;23.70;99.90
12434;DHT22;6281;49.038;8.372;2022-09-09T11:48:42;22.70;99.90
12434;DHT22;6281;49.038;8.372;2022-09-09T11:51:12;22.00;99.90
12434;DHT22;6281;49.038;8.372;2022-09-09T11:53:50;23.80;99.90
12434;DHT22;6281;49.038;8.372;2022-09-09T11:56:30;23.50;99.90
12434;DHT22;6281;49.038;8.372;2022-09-09T11:59:01;24.90;99.90
12434;DHT22;6281;49.038;8.372;2022-09-09T12:01:38;24.80;99.90
12434;DHT22;6281;49.038;8.372;2022-09-09T12:04:28;24.60;99.90
12434;DHT22;6281;49.038;8.372;2022-09-09T12:06:58;24.60;99.90
12434;DHT22;6281;49.038;8.372;2022-09-09T12:09:31;24.50;99.90
12434;DHT22;6281;49.038;8.372;2022-09-09T12:12:06;23.90;99.90
12434;DHT22;6281;49.038;8.372;2022-09-09T12:14:36;23.80;99.90
12434;DHT22;6281;49.038;8.372;2022-09-09T12:17:18;23.50;99.90
12434;DHT22;6281;49.038;8.372;2022-09-09T12:19:46;22.70;99.90
12434;DHT22;6281;49.038;8.372;2022-09-09T12:22:20;22.10;99.90
12434;DHT22;6281;49.038;8.372;2022-09-09T12:24:58;22.10;99.90
12434;DHT22;6281;49.038;8.372;2022-09-09T12:27:31;21.60;99.90
12434;DHT22;6281;49.038;8.372;2022-09-09T12:30:04;21.50;99.90
12434;DHT22;6281;49.038;8.372;2022-09-09T12:32:37;21.80;99.90
12434;DHT22;6281;49.038;8.372;2022-09-09T12:35:09;21.30;99.90
12434;DHT22;6281;49.038;8.372;2022-09-09T12:37:41;21.20;99.90
12434;DHT22;6281;49.038;8.372;2022-09-09T12:40:21;20.80;99.90
12434;DHT22;6281;49.038;8.372;2022-09-09T12:42:48;20.60;99.90
12434;DHT22;6281;49.038;8.372;2022-09-09T12:45:17;20.30;99.90
12434;DHT22;6281;49.038;8.372;2022-09-09T12:47:48;19.90;99.90
12434;DHT22;6281;49.038;8.372;2022-09-09T12:50:21;19.60;99.90
12434;DHT22;6281;49.038;8.372;2022-09-09T12:52:50;19.50;99.90
12434;DHT22;6281;49.038;8.372;2022-09-09T12:55:19;19.90;99.90
12434;DHT22;6281;49.038;8.372;2022-09-09T12:57:48;19.60;99.90
12434;DHT22;6281;49.038;8.372;2022-09-09T13:00:18;19.50;99.90
12434;DHT22;6281;49.038;8.372;2022-09-09T13:02:53;19.20;99.90
12434;DHT22;6281;49.038;8.372;2022-09-09T13:05:22;19.00;99.90
12434;DHT22;6281;49.038;8.372;2022-09-09T13:07:50;19.10;99.90
12434;DHT22;6281;49.038;8.372;2022-09-09T13:10:23;19.10;99.90
12434;DHT22;6281;49.038;8.372;2022-09-09T13:12:52;19.20;99.90
12434;DHT22;6281;49.038;8.372;2022-09-09T13:15:22;19.00;99.90
12434;DHT22;6281;49.038;8.372;2022-09-09T13:17:55;19.00;99.90
12434;DHT22;6281;49.038;8.372;2022-09-09T13:20:23;19.50;99.90
12434;DHT22;6281;49.038;8.372;2022-09-09T13:22:52;19.90;99.90
12434;DHT22;6281;49.038;8.372;2022-09-09T13:25:22;20.20;99.90
12434;DHT22;6281;49.038;8.372;2022-09-09T13:27:59;20.60;99.90
12434;DHT22;6281;49.038;8.372;2022-09-09T13:30:29;21.30;99.90
12434;DHT22;6281;49.038;8.372;2022-09-09T13:33:06;22.00;99.90
12434;DHT22;6281;49.038;8.372;2022-09-09T13:35:47;22.60;99.90
12434;DHT22;6281;49.038;8.372;2022-09-09T13:38:15;22.90;99.90
12434;DHT22;6281;49.038;8.372;2022-09-09T13:40:52;22.50;99.90
12434;DHT22;6281;49.038;8.372;2022-09-09T13:43:22;23.00;99.90
12434;DHT22;6281;49.038;8.372;2022-09-09T13:45:56;22.80;99.90
12434;DHT22;6281;49.038;8.372;2022-09-09T13:48:26;21.90;99.90
12434;DHT22;6281;49.038;8.372;2022-09-09T13:51:00;22.00;99.90
12434;DHT22;6281;49.038;8.372;2022-09-09T13:53:28;21.80;99.90
12434;DHT22;6281;49.038;8.372;2022-09-09T13:55:56;21.60;99.90
12434;DHT22;6281;49.038;8.372;2022-09-09T13:58:24;21.50;99.90
12434;DHT22;6281;49.038;8.372;2022-09-09T14:00:51;21.40;99.90
12434;DHT22;6281;49.038;8.372;2022-09-09T14:03:19;21.20;99.90
12434;DHT22;6281;49.038;8.372;2022-09-09T14:05:47;20.60;99.90
12434;DHT22;6281;49.038;8.372;2022-09-09T14:08:21;20.40;99.90
12434;DHT22;6281;49.038;8.372;2022-09-09T14:10:48;19.60;99.90
12434;DHT22;6281;49.038;8.372;2022-09-09T14:13:15;17.90;99.90
12434;DHT22;6281;49.038;8.372;2022-09-09T14:15:41;16.30;99.90
12434;DHT22;6281;49.038;8.372;2022-09-09T14:18:11;16.60;99.90
12434;DHT22;6281;49.038;8.372;2022-09-09T14:20:39;17.00;99.90
12434;DHT22;6281;49.038;8.372;2022-09-09T14:23:10;17.90;99.90
12434;DHT22;6281;49.038;8.372;2022-09-09T14:25:40;18.70;99.90
12434;DHT22;6281;49.038;8.372;2022-09-09T14:28:09;18.60;99.90
12434;DHT22;6281;49.038;8.372;2022-09-09T14:30:37;19.30;99.90
12434;DHT22;6281;49.038;8.372;2022-09-09T14:33:04;19.20;99.90
12434;DHT22;6281;49.038;8.372;2022-09-09T14:35:31;19.50;99.90
12434;DHT22;6281;49.038;8.372;2022-09-09T14:37:58;19.00;99.90
12434;DHT22;6281;49.038;8.372;2022-09-09T14:40:26;18.50;99.90
12434;DHT22;6281;49.038;8.372;2022-09-09T14:42:53;18.40;99.90
12434;DHT22;6281;49.038;8.372;2022-09-09T14:45:21;18.60;99.90
12434;DHT22;6281;49.038;8.372;2022-09-09T14:47:49;18.50;99.90
12434;DHT22;6281;49.038;8.372;2022-09-09T14:50:16;18.50;99.90
12434;DHT22;6281;49.038;8.372;2022-09-09T14:52:43;18.30;99.90
12434;DHT22;6281;49.038;8.372;2022-09-09T14:55:10;18.30;99.90
12434;DHT22;6281;49.038;8.372;2022-09-09T14:57:39;18.20;99.90
12434;DHT22;6281;49.038;8.372;2022-09-09T15:00:07;17.80;99.90
12434;DHT22;6281;49.038;8.372;2022-09-09T15:02:34;16.20;99.90
12434;DHT22;6281;49.038;8.372;2022-09-09T15:05:23;16.10;99.90
12434;DHT22;6281;49.038;8.372;2022-09-09T15:07:50;16.30;99.90
12434;DHT22;6281;49.038;8.372;2022-09-09T15:10:17;15.80;99.90
12434;DHT22;6281;49.038;8.372;2022-09-09T15:12:45;15.90;99.90
12434;DHT22;6281;49.038;8.372;2022-09-09T15:15:12;16.40;99.90
12434;DHT22;6281;49.038;8.372;2022-09-09T15:17:39;16.60;99.90
12434;DHT22;6281;49.038;8.372;2022-09-09T15:20:07;16.60;99.90
12434;DHT22;6281;49.038;8.372;2022-09-09T15:22:34;16.80;99.90
12434;DHT22;6281;49.038;8.372;2022-09-09T15:25:03;17.50;99.90
12434;DHT22;6281;49.038;8.372;2022-09-09T15:27:31;17.70;99.90
12434;DHT22;6281;49.038;8.372;2022-09-09T15:30:01;17.10;99.90
12434;DHT22;6281;49.038;8.372;2022-09-09T15:32:30;18.20;99.90
12434;DHT22;6281;49.038;8.372;2022-09-09T15:35:00;19.20;99.90
12434;DHT22;6281;49.038;8.372;2022-09-09T15:37:27;18.70;99.90
12434;DHT22;6281;49.038;8.372;2022-09-09T15:39:54;19.50;99.90
12434;DHT22;6281;49.038;8.372;2022-09-09T15:42:21;19.60;99.90
12434;DHT22;6281;49.038;8.372;2022-09-09T15:44:48;19.70;99.90
12434;DHT22;6281;49.038;8.372;2022-09-09T15:47:16;21.00;99.90
12434;DHT22;6281;49.038;8.372;2022-09-09T15:49:43;21.40;99.90
12434;DHT22;6281;49.038;8.372;2022-09-09T15:52:10;21.20;99.90
12434;DHT22;6281;49.038;8.372;2022-09-09T15:54:37;20.60;99.90
12434;DHT22;6281;49.038;8.372;2022-09-09T15:57:07;20.70;99.90
12434;DHT22;6281;49.038;8.372;2022-09-09T15:59:34;20.30;99.90
12434;DHT22;6281;49.038;8.372;2022-09-09T16:02:02;20.30;99.90
12434;DHT22;6281;49.038;8.372;2022-09-09T16:04:31;20.10;99.90
12434;DHT22;6281;49.038;8.372;2022-09-09T16:07:01;19.70;99.90
12434;DHT22;6281;49.038;8.372;2022-09-09T16:09:29;19.50;99.90
12434;DHT22;6281;49.038;8.372;2022-09-09T16:11:56;19.10;99.90